createdAt,value
2018-06-19T00:01:08.959Z,1015.23
2018-06-19T00:02:08.589Z,1015.24
2018-06-19T00:03:08.584Z,1015.23
2018-06-19T00:04:08.597Z,1015.24
2018-06-19T00:05:08.614Z,1015.23
2018-06-19T00:09:08.681Z,1015.22
2018-06-19T00:10:08.813Z,1015.26
2018-06-19T00:11:08.714Z,1015.21
2018-06-19T00:12:08.728Z,1015.21
2018-06-19T00:13:08.745Z,1015.24
2018-06-19T00:14:08.760Z,1015.26
2018-06-19T00:15:08.777Z,1015.27
2018-06-19T00:16:08.795Z,1015.28
2018-06-19T00:17:08.808Z,1015.27
2018-06-19T00:18:08.826Z,1015.25
2018-06-19T00:19:08.844Z,1015.28
2018-06-19T00:20:08.869Z,1015.25
2018-06-19T00:21:08.875Z,1015.27
2018-06-19T00:22:08.890Z,1015.24
2018-06-19T00:23:08.911Z,1015.24
2018-06-19T00:24:08.922Z,1015.22
2018-06-19T00:25:08.938Z,1015.24
2018-06-19T00:26:08.957Z,1015.26
2018-06-19T00:27:08.975Z,1015.27
2018-06-19T00:28:08.994Z,1015.28
2018-06-19T00:29:09.118Z,1015.28
2018-06-19T00:30:09.259Z,1015.31
2018-06-19T00:31:09.240Z,1015.29
2018-06-19T00:32:09.054Z,1015.28
2018-06-19T00:33:09.070Z,1015.27
2018-06-19T00:34:09.086Z,1015.23
2018-06-19T00:35:09.103Z,1015.22
2018-06-19T00:36:09.117Z,1015.22
2018-06-19T00:37:09.133Z,1015.26
2018-06-19T00:38:09.157Z,1015.27
2018-06-19T00:39:09.167Z,1015.34
2018-06-19T00:40:09.183Z,1015.34
2018-06-19T00:43:09.244Z,1015.41
2018-06-19T00:44:09.246Z,1015.45
2018-06-19T00:45:09.262Z,1015.40
2018-06-19T00:46:09.279Z,1015.37
2018-06-19T00:47:09.309Z,1015.38
2018-06-19T00:48:09.310Z,1015.35
2018-06-19T00:49:09.326Z,1015.36
2018-06-19T00:50:09.348Z,1015.36
2018-06-19T00:51:09.357Z,1015.38
2018-06-19T00:52:09.379Z,1015.41
2018-06-19T00:53:09.391Z,1015.40
2018-06-19T00:54:09.408Z,1015.41
2018-06-19T00:55:09.424Z,1015.40
2018-06-19T00:56:09.440Z,1015.37
2018-06-19T00:57:09.457Z,1015.38
2018-06-19T00:58:09.471Z,1015.39
2018-06-19T00:59:09.491Z,1015.39
2018-06-19T01:00:09.503Z,1015.39
2018-06-19T01:02:09.540Z,1015.44
2018-06-19T01:04:09.581Z,1015.42
2018-06-19T01:05:09.584Z,1015.36
2018-06-19T01:06:09.602Z,1015.34
2018-06-19T01:07:09.616Z,1015.35
2018-06-19T01:08:09.630Z,1015.37
2018-06-19T01:09:09.647Z,1015.41
2018-06-19T01:10:09.680Z,1015.39
2018-06-19T01:11:09.682Z,1015.39
2018-06-19T01:12:09.699Z,1015.37
2018-06-19T01:13:09.712Z,1015.39
2018-06-19T01:14:09.728Z,1015.36
2018-06-19T01:16:09.857Z,1015.35
2018-06-19T01:17:09.777Z,1015.37
2018-06-19T01:18:09.794Z,1015.39
2018-06-19T01:19:09.810Z,1015.37
2018-06-19T01:20:09.824Z,1015.36
2018-06-19T01:21:09.841Z,1015.35
2018-06-19T01:22:09.858Z,1015.33
2018-06-19T01:23:09.873Z,1015.29
2018-06-19T01:24:09.890Z,1015.30
2018-06-19T01:25:09.907Z,1015.27
2018-06-19T01:26:09.923Z,1015.25
2018-06-19T01:27:09.939Z,1015.28
2018-06-19T01:28:09.954Z,1015.28
2018-06-19T01:29:09.971Z,1015.25
2018-06-19T01:30:09.987Z,1015.27
2018-06-19T01:31:10.006Z,1015.27
2018-06-19T01:32:10.021Z,1015.28
2018-06-19T01:33:10.037Z,1015.24
2018-06-19T01:34:10.171Z,1015.26
2018-06-19T01:35:10.262Z,1015.24
2018-06-19T01:36:10.289Z,1015.25
2018-06-19T01:37:10.476Z,1015.23
2018-06-19T01:38:10.199Z,1015.22
2018-06-19T01:39:10.234Z,1015.25
2018-06-19T01:40:10.150Z,1015.26
2018-06-19T01:41:10.168Z,1015.23
2018-06-19T01:42:10.182Z,1015.29
2018-06-19T01:43:10.197Z,1015.27
2018-06-19T01:44:10.213Z,1015.27
2018-06-19T01:45:10.230Z,1015.26
2018-06-19T01:46:10.245Z,1015.26
2018-06-19T01:47:10.269Z,1015.31
2018-06-19T01:48:10.280Z,1015.28
2018-06-19T01:49:10.347Z,1015.29
2018-06-19T01:50:10.321Z,1015.30
2018-06-19T01:51:10.328Z,1015.34
2018-06-19T01:52:10.342Z,1015.31
2018-06-19T01:53:10.358Z,1015.30
2018-06-19T01:54:10.375Z,1015.28
2018-06-19T01:55:10.393Z,1015.28
2018-06-19T01:56:10.406Z,1015.31
2018-06-19T01:57:10.429Z,1015.34
2018-06-19T01:58:10.438Z,1015.31
2018-06-19T01:59:10.465Z,1015.33
2018-06-19T02:00:10.472Z,1015.41
2018-06-19T02:01:10.487Z,1015.35
2018-06-19T02:02:10.506Z,1015.39
2018-06-19T02:03:10.521Z,1015.36
2018-06-19T02:04:10.536Z,1015.37
2018-06-19T02:05:10.558Z,1015.38
2018-06-19T02:06:10.570Z,1015.34
2018-06-19T02:07:10.587Z,1015.36
2018-06-19T02:08:10.810Z,1015.31
2018-06-19T02:09:10.617Z,1015.31
2018-06-19T02:10:10.637Z,1015.34
2018-06-19T02:11:10.654Z,1015.34
2018-06-19T02:12:10.666Z,1015.29
2018-06-19T02:13:10.681Z,1015.31
2018-06-19T02:14:10.697Z,1015.32
2018-06-19T02:15:10.716Z,1015.34
2018-06-19T02:16:10.731Z,1015.28
2018-06-19T02:17:10.748Z,1015.27
2018-06-19T02:18:10.764Z,1015.27
2018-06-19T02:19:10.795Z,1015.29
2018-06-19T02:20:10.802Z,1015.31
2018-06-19T02:21:10.811Z,1015.27
2018-06-19T02:22:10.826Z,1015.24
2018-06-19T02:23:10.847Z,1015.24
2018-06-19T02:24:10.860Z,1015.27
2018-06-19T02:25:10.876Z,1015.28
2018-06-19T02:26:10.892Z,1015.27
2018-06-19T02:27:10.909Z,1015.29
2018-06-19T02:28:10.931Z,1015.30
2018-06-19T02:29:10.944Z,1015.29
2018-06-19T02:30:10.960Z,1015.27
2018-06-19T02:31:10.974Z,1015.28
2018-06-19T02:32:10.991Z,1015.23
2018-06-19T02:33:11.007Z,1015.25
2018-06-19T02:34:11.023Z,1015.29
2018-06-19T02:35:11.037Z,1015.28
2018-06-19T02:36:11.055Z,1015.27
2018-06-19T02:37:11.070Z,1015.27
2018-06-19T02:38:11.090Z,1015.28
2018-06-19T02:39:11.102Z,1015.29
2018-06-19T02:40:11.121Z,1015.27
2018-06-19T02:41:11.172Z,1015.28
2018-06-19T02:42:11.425Z,1015.26
2018-06-19T02:43:11.356Z,1015.27
2018-06-19T02:44:11.185Z,1015.27
2018-06-19T02:45:11.204Z,1015.27
2018-06-19T02:46:11.216Z,1015.26
2018-06-19T02:47:11.236Z,1015.25
2018-06-19T02:48:11.249Z,1015.30
2018-06-19T02:49:11.313Z,1015.31
2018-06-19T02:50:11.277Z,1015.32
2018-06-19T02:51:11.551Z,1015.31
2018-06-19T02:52:11.309Z,1015.24
2018-06-19T02:53:11.332Z,1015.26
2018-06-19T02:54:11.345Z,1015.26
2018-06-19T02:55:11.359Z,1015.26
2018-06-19T02:56:11.376Z,1015.28
2018-06-19T02:57:11.392Z,1015.33
2018-06-19T02:58:11.411Z,1015.35
2018-06-19T02:59:11.428Z,1015.37
2018-06-19T03:00:11.438Z,1015.29
2018-06-19T03:01:11.458Z,1015.29
2018-06-19T03:02:11.472Z,1015.32
2018-06-19T03:03:11.496Z,1015.32
2018-06-19T03:04:11.511Z,1015.31
2018-06-19T03:05:11.522Z,1015.27
2018-06-19T03:06:11.539Z,1015.32
2018-06-19T03:07:11.554Z,1015.32
2018-06-19T03:08:11.570Z,1015.26
2018-06-19T03:09:11.584Z,1015.32
2018-06-19T03:10:11.604Z,1015.32
2018-06-19T03:11:11.636Z,1015.38
2018-06-19T03:12:11.633Z,1015.36
2018-06-19T03:13:11.654Z,1015.36
2018-06-19T03:14:11.870Z,1015.38
2018-06-19T03:15:11.752Z,1015.42
2018-06-19T03:16:11.705Z,1015.42
2018-06-19T03:17:11.711Z,1015.42
2018-06-19T03:18:11.793Z,1015.44
2018-06-19T03:19:11.746Z,1015.44
2018-06-19T03:20:11.761Z,1015.43
2018-06-19T03:21:11.776Z,1015.45
2018-06-19T03:22:11.794Z,1015.50
2018-06-19T03:23:11.810Z,1015.48
2018-06-19T03:24:11.823Z,1015.53
2018-06-19T03:26:11.966Z,1015.52
2018-06-19T03:27:11.874Z,1015.50
2018-06-19T03:28:11.893Z,1015.54
2018-06-19T03:29:11.905Z,1015.52
2018-06-19T03:30:11.965Z,1015.53
2018-06-19T03:31:11.945Z,1015.55
2018-06-19T03:32:11.956Z,1015.51
2018-06-19T03:33:11.980Z,1015.53
2018-06-19T03:34:11.985Z,1015.59
2018-06-19T03:35:12.002Z,1015.52
2018-06-19T03:36:12.017Z,1015.53
2018-06-19T03:37:12.035Z,1015.58
2018-06-19T03:38:12.053Z,1015.58
2018-06-19T03:39:12.068Z,1015.53
2018-06-19T03:40:12.081Z,1015.65
2018-06-19T03:41:12.098Z,1015.61
2018-06-19T03:42:12.113Z,1015.62
2018-06-19T03:43:12.129Z,1015.61
2018-06-19T03:44:12.147Z,1015.59
2018-06-19T03:45:12.170Z,1015.64
2018-06-19T03:46:12.178Z,1015.67
2018-06-19T03:47:12.196Z,1015.70
2018-06-19T03:48:12.208Z,1015.70
2018-06-19T03:49:12.225Z,1015.66
2018-06-19T03:50:12.248Z,1015.67
2018-06-19T03:51:12.342Z,1015.70
2018-06-19T03:52:12.273Z,1015.68
2018-06-19T03:53:12.320Z,1015.76
2018-06-19T03:54:12.308Z,1015.74
2018-06-19T03:55:12.323Z,1015.75
2018-06-19T03:56:12.338Z,1015.74
2018-06-19T03:57:12.361Z,1015.74
2018-06-19T03:58:12.370Z,1015.80
2018-06-19T03:59:12.385Z,1015.76
2018-06-19T04:00:12.405Z,1015.78
2018-06-19T04:01:12.434Z,1015.77
2018-06-19T04:02:12.435Z,1015.77
2018-06-19T04:03:12.453Z,1015.74
2018-06-19T04:04:12.464Z,1015.73
2018-06-19T04:05:12.481Z,1015.76
2018-06-19T04:06:12.498Z,1015.83
2018-06-19T04:07:12.515Z,1015.83
2018-06-19T04:08:12.537Z,1015.81
2018-06-19T04:09:12.545Z,1015.88
2018-06-19T04:10:12.566Z,1015.82
2018-06-19T04:11:12.578Z,1015.79
2018-06-19T04:12:12.599Z,1015.82
2018-06-19T04:13:12.610Z,1015.84
2018-06-19T04:14:12.831Z,1015.84
2018-06-19T04:15:12.647Z,1015.86
2018-06-19T04:16:12.712Z,1015.91
2018-06-19T04:17:12.717Z,1015.88
2018-06-19T04:18:12.727Z,1015.87
2018-06-19T04:19:12.708Z,1015.81
2018-06-19T04:20:12.726Z,1015.86
2018-06-19T04:21:12.747Z,1015.83
2018-06-19T04:23:12.872Z,1015.88
2018-06-19T04:24:12.880Z,1015.78
2018-06-19T04:25:12.803Z,1015.80
2018-06-19T04:26:12.829Z,1015.84
2018-06-19T04:27:12.836Z,1015.76
2018-06-19T04:28:14.600Z,1015.85
2018-06-19T04:29:13.427Z,1015.85
2018-06-19T04:30:14.779Z,1015.84
2018-06-19T04:31:12.944Z,1015.81
2018-06-19T04:32:12.919Z,1015.82
2018-06-19T04:33:12.934Z,1015.86
2018-06-19T04:34:12.948Z,1015.85
2018-06-19T04:35:12.962Z,1015.85
2018-06-19T04:36:13.004Z,1015.85
2018-06-19T04:37:12.989Z,1015.86
2018-06-19T04:38:13.005Z,1015.89
2018-06-19T04:39:13.021Z,1015.93
2018-06-19T04:40:13.040Z,1015.96
2018-06-19T04:41:13.055Z,1015.98
2018-06-19T04:42:13.070Z,1015.96
2018-06-19T04:43:13.101Z,1016.01
2018-06-19T04:44:13.768Z,1016.03
2018-06-19T04:45:13.141Z,1016.03
2018-06-19T04:46:13.138Z,1016.05
2018-06-19T04:47:13.151Z,1016.08
2018-06-19T04:48:13.165Z,1016.03
2018-06-19T04:49:13.182Z,1016.03
2018-06-19T04:50:13.217Z,1016.04
2018-06-19T04:51:13.214Z,1015.97
2018-06-19T04:52:13.233Z,1016.01
2018-06-19T04:53:13.246Z,1016.00
2018-06-19T04:54:13.262Z,1016.03
2018-06-19T04:55:13.280Z,1016.06
2018-06-19T04:56:13.295Z,1016.05
2018-06-19T04:57:13.317Z,1016.01
2018-06-19T04:58:13.329Z,1016.10
2018-06-19T04:59:13.343Z,1016.08
2018-06-19T05:00:13.358Z,1016.08
2018-06-19T05:01:13.375Z,1016.06
2018-06-19T05:02:13.391Z,1016.09
2018-06-19T05:03:13.406Z,1016.08
2018-06-19T05:04:13.496Z,1016.11
2018-06-19T05:05:13.457Z,1016.11
2018-06-19T05:06:13.461Z,1016.09
2018-06-19T05:07:13.472Z,1016.07
2018-06-19T05:08:13.487Z,1016.10
2018-06-19T05:09:13.503Z,1016.06
2018-06-19T05:10:13.521Z,1016.10
2018-06-19T05:11:13.537Z,1016.08
2018-06-19T05:12:13.554Z,1016.13
2018-06-19T05:13:13.567Z,1016.14
2018-06-19T05:14:13.590Z,1016.14
2018-06-19T05:15:13.606Z,1016.16
2018-06-19T05:16:13.617Z,1016.22
2018-06-19T05:17:13.936Z,1016.24
2018-06-19T05:18:13.648Z,1016.22
2018-06-19T05:19:13.665Z,1016.19
2018-06-19T05:20:13.700Z,1016.20
2018-06-19T05:21:13.702Z,1016.22
2018-06-19T05:22:13.733Z,1016.27
2018-06-19T05:23:13.730Z,1016.25
2018-06-19T05:24:13.747Z,1016.24
2018-06-19T05:25:13.762Z,1016.21
2018-06-19T05:26:13.852Z,1016.25
2018-06-19T05:27:13.793Z,1016.23
2018-06-19T05:28:13.859Z,1016.27
2018-06-19T05:29:13.826Z,1016.26
2018-06-19T05:30:13.885Z,1016.27
2018-06-19T05:31:13.868Z,1016.30
2018-06-19T05:32:13.874Z,1016.28
2018-06-19T05:33:14.017Z,1016.26
2018-06-19T05:34:13.907Z,1016.24
2018-06-19T05:35:13.931Z,1016.21
2018-06-19T05:36:13.939Z,1016.23
2018-06-19T05:37:13.955Z,1016.22
2018-06-19T05:38:13.980Z,1016.28
2018-06-19T05:39:13.989Z,1016.30
2018-06-19T05:40:14.005Z,1016.30
2018-06-19T05:41:14.019Z,1016.29
2018-06-19T05:42:14.038Z,1016.29
2018-06-19T05:43:14.054Z,1016.28
2018-06-19T05:44:14.069Z,1016.24
2018-06-19T05:45:14.087Z,1016.31
2018-06-19T05:46:14.110Z,1016.32
2018-06-19T05:47:14.119Z,1016.33
2018-06-19T05:48:14.133Z,1016.31
2018-06-19T05:49:14.157Z,1016.31
2018-06-19T05:50:14.168Z,1016.32
2018-06-19T05:51:14.184Z,1016.37
2018-06-19T05:52:15.029Z,1016.40
2018-06-19T05:53:14.215Z,1016.41
2018-06-19T05:54:14.238Z,1016.40
2018-06-19T05:55:14.260Z,1016.37
2018-06-19T05:56:15.476Z,1016.48
2018-06-19T05:57:14.284Z,1016.53
2018-06-19T05:58:14.296Z,1016.48
2018-06-19T05:59:14.312Z,1016.52
2018-06-19T06:00:14.347Z,1016.51
2018-06-19T06:01:14.347Z,1016.55
2018-06-19T06:02:14.369Z,1016.56
2018-06-19T06:03:14.379Z,1016.57
2018-06-19T06:04:14.392Z,1016.53
2018-06-19T06:05:14.410Z,1016.55
2018-06-19T06:06:14.426Z,1016.53
2018-06-19T06:07:14.441Z,1016.57
2018-06-19T06:08:14.460Z,1016.59
2018-06-19T06:09:14.475Z,1016.62
2018-06-19T06:10:14.492Z,1016.60
2018-06-19T06:11:14.579Z,1016.60
2018-06-19T06:12:14.545Z,1016.67
2018-06-19T06:13:14.591Z,1016.61
2018-06-19T06:14:14.572Z,1016.64
2018-06-19T06:15:14.573Z,1016.61
2018-06-19T06:16:14.588Z,1016.66
2018-06-19T06:17:14.614Z,1016.66
2018-06-19T06:18:14.629Z,1016.68
2018-06-19T06:19:15.167Z,1016.73
2018-06-19T06:20:14.654Z,1016.72
2018-06-19T06:21:14.672Z,1016.75
2018-06-19T06:22:14.698Z,1016.75
2018-06-19T06:23:14.715Z,1016.75
2018-06-19T06:24:14.717Z,1016.76
2018-06-19T06:25:14.735Z,1016.80
2018-06-19T06:26:14.755Z,1016.80
2018-06-19T06:27:14.769Z,1016.82
2018-06-19T06:28:14.791Z,1016.87
2018-06-19T06:29:14.817Z,1016.90
2018-06-19T06:30:14.817Z,1016.90
2018-06-19T06:31:14.895Z,1016.97
2018-06-19T06:32:14.850Z,1016.95
2018-06-19T06:33:14.866Z,1016.94
2018-06-19T06:34:14.882Z,1016.95
2018-06-19T06:35:14.901Z,1016.95
2018-06-19T06:36:14.914Z,1016.93
2018-06-19T06:37:15.759Z,1016.91
2018-06-19T06:38:14.952Z,1016.94
2018-06-19T06:39:14.968Z,1016.95
2018-06-19T06:40:14.991Z,1016.94
2018-06-19T06:41:14.998Z,1016.93
2018-06-19T06:42:15.013Z,1016.95
2018-06-19T06:43:15.030Z,1016.94
2018-06-19T06:45:15.128Z,1016.92
2018-06-19T06:46:15.080Z,1016.96
2018-06-19T06:47:15.105Z,1016.95
2018-06-19T06:48:15.112Z,1016.98
2018-06-19T06:49:15.132Z,1016.96
2018-06-19T06:50:15.154Z,1016.95
2018-06-19T06:51:16.503Z,1016.99
2018-06-19T06:52:15.178Z,1017.02
2018-06-19T06:53:15.195Z,1016.93
2018-06-19T06:54:15.212Z,1016.91
2018-06-19T06:55:15.242Z,1016.90
2018-06-19T06:56:15.253Z,1016.93
2018-06-19T06:57:15.868Z,1016.93
2018-06-19T06:59:15.313Z,1016.92
2018-06-19T07:00:15.313Z,1016.94
2018-06-19T07:01:16.028Z,1016.94
2018-06-19T07:02:15.353Z,1016.98
2018-06-19T07:03:15.375Z,1016.96
2018-06-19T07:04:15.381Z,1016.99
2018-06-19T07:05:15.477Z,1017.00
2018-06-19T07:06:15.447Z,1016.99
2018-06-19T07:07:15.428Z,1017.00
2018-06-19T07:08:15.530Z,1017.04
2018-06-19T07:09:15.466Z,1017.04
2018-06-19T07:10:15.504Z,1016.99
2018-06-19T07:11:15.503Z,1017.02
2018-06-19T07:12:15.517Z,1017.03
2018-06-19T07:13:15.547Z,1017.09
2018-06-19T07:14:15.552Z,1017.03
2018-06-19T07:15:15.661Z,1017.04
2018-06-19T07:16:15.584Z,1017.06
2018-06-19T07:17:15.614Z,1017.09
2018-06-19T07:18:15.617Z,1017.08
2018-06-19T07:19:15.679Z,1017.12
2018-06-19T07:20:15.648Z,1017.06
2018-06-19T07:21:15.678Z,1017.07
2018-06-19T07:22:15.688Z,1017.12
2018-06-19T07:23:15.711Z,1017.14
2018-06-19T07:24:15.730Z,1017.15
2018-06-19T07:25:15.746Z,1017.14
2018-06-19T07:26:16.018Z,1017.17
2018-06-19T07:27:15.900Z,1017.13
2018-06-19T07:28:15.784Z,1017.17
2018-06-19T07:29:15.907Z,1017.19
2018-06-19T07:30:16.136Z,1017.20
2018-06-19T07:31:15.837Z,1017.21
2018-06-19T07:32:16.845Z,1017.21
2018-06-19T07:33:15.901Z,1017.21
2018-06-19T07:34:16.298Z,1017.26
2018-06-19T07:35:15.907Z,1017.32
2018-06-19T07:36:16.785Z,1017.26
2018-06-19T07:37:15.942Z,1017.33
2018-06-19T07:41:16.151Z,1017.38
2018-06-19T07:42:16.025Z,1017.40
2018-06-19T07:43:16.055Z,1017.39
2018-06-19T07:44:16.064Z,1017.34
2018-06-19T07:45:16.078Z,1017.40
2018-06-19T07:46:16.767Z,1017.39
2018-06-19T07:47:16.253Z,1017.38
2018-06-19T07:48:16.128Z,1017.39
2018-06-19T07:49:16.144Z,1017.40
2018-06-19T07:50:16.161Z,1017.46
2018-06-19T07:51:16.180Z,1017.45
2018-06-19T07:52:16.266Z,1017.47
2018-06-19T07:53:16.215Z,1017.46
2018-06-19T07:54:16.231Z,1017.54
2018-06-19T07:55:16.261Z,1017.56
2018-06-19T07:56:16.283Z,1017.55
2018-06-19T07:57:16.302Z,1017.56
2018-06-19T07:58:16.301Z,1017.56
2018-06-19T07:59:16.404Z,1017.62
2018-06-19T08:00:16.339Z,1017.60
2018-06-19T08:01:16.369Z,1017.62
2018-06-19T08:02:16.363Z,1017.59
2018-06-19T08:03:16.399Z,1017.61
2018-06-19T08:04:16.452Z,1017.59
2018-06-19T08:05:16.419Z,1017.61
2018-06-19T08:06:16.429Z,1017.64
2018-06-19T08:07:16.458Z,1017.64
2018-06-19T08:08:16.464Z,1017.56
2018-06-19T08:09:16.500Z,1017.64
2018-06-19T08:10:16.509Z,1017.63
2018-06-19T08:11:16.882Z,1017.64
2018-06-19T08:12:16.557Z,1017.61
2018-06-19T08:13:16.550Z,1017.64
2018-06-19T08:14:17.028Z,1017.61
2018-06-19T08:15:16.586Z,1017.57
2018-06-19T08:16:16.599Z,1017.64
2018-06-19T08:17:16.627Z,1017.64
2018-06-19T08:18:16.635Z,1017.78
2018-06-19T08:19:16.653Z,1017.71
2018-06-19T08:20:16.672Z,1017.77
2018-06-19T08:21:16.740Z,1017.81
2018-06-19T08:22:16.705Z,1017.78
2018-06-19T08:23:16.724Z,1017.74
2018-06-19T08:24:16.736Z,1017.75
2018-06-19T08:25:16.755Z,1017.77
2018-06-19T08:26:16.770Z,1017.77
2018-06-19T08:27:16.795Z,1017.78
2018-06-19T08:28:16.802Z,1017.81
2018-06-19T08:29:17.200Z,1017.82
2018-06-19T08:30:16.837Z,1017.81
2018-06-19T08:31:16.858Z,1017.85
2018-06-19T08:32:16.871Z,1017.84
2018-06-19T08:33:17.130Z,1017.83
2018-06-19T08:34:16.906Z,1017.84
2018-06-19T08:35:16.922Z,1017.81
2018-06-19T08:36:16.984Z,1017.86
2018-06-19T08:37:16.956Z,1017.84
2018-06-19T08:38:16.972Z,1017.83
2018-06-19T08:39:16.989Z,1017.82
2018-06-19T08:40:17.026Z,1017.82
2018-06-19T08:41:17.024Z,1017.82
2018-06-19T08:42:17.044Z,1017.85
2018-06-19T08:43:17.090Z,1017.83
2018-06-19T08:44:17.074Z,1017.87
2018-06-19T08:45:17.089Z,1017.88
2018-06-19T08:46:17.107Z,1017.92
2018-06-19T08:47:17.123Z,1017.90
2018-06-19T08:48:17.141Z,1017.94
2018-06-19T08:49:17.159Z,1017.89
2018-06-19T08:50:17.180Z,1017.91
2018-06-19T08:51:17.193Z,1017.95
2018-06-19T08:52:17.206Z,1018.03
2018-06-19T08:53:17.232Z,1017.96
2018-06-19T08:54:17.273Z,1017.92
2018-06-19T08:55:17.311Z,1017.92
2018-06-19T08:56:17.278Z,1017.89
2018-06-19T08:57:17.300Z,1017.89
2018-06-19T08:58:17.309Z,1017.90
2018-06-19T08:59:17.329Z,1017.92
2018-06-19T09:00:17.352Z,1017.98
2018-06-19T09:01:17.365Z,1017.92
2018-06-19T09:02:17.379Z,1017.94
2018-06-19T09:03:17.397Z,1017.93
2018-06-19T09:04:17.416Z,1017.97
2018-06-19T09:05:17.429Z,1017.94
2018-06-19T09:06:17.446Z,1017.98
2018-06-19T09:07:17.477Z,1018.00
2018-06-19T09:08:18.045Z,1017.98
2018-06-19T09:09:17.498Z,1018.02
2018-06-19T09:10:17.514Z,1017.97
2018-06-19T09:11:17.572Z,1018.01
2018-06-19T09:12:17.560Z,1017.97
2018-06-19T09:13:17.760Z,1018.02
2018-06-19T09:14:18.318Z,1018.05
2018-06-19T09:15:17.604Z,1018.07
2018-06-19T09:16:17.624Z,1018.07
2018-06-19T09:17:17.689Z,1018.07
2018-06-19T09:18:17.713Z,1018.13
2018-06-19T09:19:17.676Z,1018.09
2018-06-19T09:20:17.696Z,1018.09
2018-06-19T09:21:17.710Z,1018.15
2018-06-19T09:22:17.727Z,1018.13
2018-06-19T09:23:17.759Z,1018.13
2018-06-19T09:24:17.857Z,1018.18
2018-06-19T09:25:17.891Z,1018.17
2018-06-19T09:26:17.799Z,1018.17
2018-06-19T09:27:17.832Z,1018.18
2018-06-19T09:28:17.841Z,1018.18
2018-06-19T09:29:17.849Z,1018.19
2018-06-19T09:30:17.867Z,1018.18
2018-06-19T09:31:17.906Z,1018.18
2018-06-19T09:32:17.903Z,1018.16
2018-06-19T09:33:17.923Z,1018.18
2018-06-19T09:34:17.952Z,1018.21
2018-06-19T09:35:17.962Z,1018.22
2018-06-19T09:36:17.978Z,1018.25
2018-06-19T09:37:17.990Z,1018.26
2018-06-19T09:38:18.012Z,1018.24
2018-06-19T09:39:18.027Z,1018.21
2018-06-19T09:40:18.044Z,1018.20
2018-06-19T09:41:18.062Z,1018.17
2018-06-19T09:42:18.078Z,1018.21
2018-06-19T09:43:18.138Z,1018.22
2018-06-19T09:44:18.113Z,1018.25
2018-06-19T09:45:18.131Z,1018.25
2018-06-19T09:46:18.151Z,1018.21
2018-06-19T09:47:18.168Z,1018.23
2018-06-19T09:48:18.184Z,1018.23
2018-06-19T09:49:18.201Z,1018.21
2018-06-19T09:50:18.405Z,1018.23
2018-06-19T09:51:18.809Z,1018.23
2018-06-19T09:52:18.255Z,1018.22
2018-06-19T09:53:18.272Z,1018.22
2018-06-19T09:54:18.288Z,1018.21
2018-06-19T09:55:18.308Z,1018.20
2018-06-19T09:56:18.329Z,1018.21
2018-06-19T09:57:18.346Z,1018.23
2018-06-19T09:58:18.389Z,1018.20
2018-06-19T09:59:18.397Z,1018.27
2018-06-19T10:00:18.395Z,1018.24
2018-06-19T10:01:18.412Z,1018.21
2018-06-19T10:02:18.435Z,1018.20
2018-06-19T10:03:18.459Z,1018.27
2018-06-19T10:04:18.465Z,1018.26
2018-06-19T10:05:18.483Z,1018.27
2018-06-19T10:06:18.529Z,1018.26
2018-06-19T10:07:18.519Z,1018.23
2018-06-19T10:08:18.608Z,1018.23
2018-06-19T10:09:18.553Z,1018.22
2018-06-19T10:10:18.586Z,1018.22
2018-06-19T10:11:18.606Z,1018.26
2018-06-19T10:12:18.678Z,1018.23
2018-06-19T10:13:19.337Z,1018.23
2018-06-19T10:14:19.424Z,1018.23
2018-06-19T10:16:18.675Z,1018.22
2018-06-19T10:17:18.693Z,1018.22
2018-06-19T10:18:18.713Z,1018.19
2018-06-19T10:19:18.729Z,1018.21
2018-06-19T10:20:18.746Z,1018.25
2018-06-19T10:21:18.764Z,1018.23
2018-06-19T10:22:18.781Z,1018.25
2018-06-19T10:23:18.802Z,1018.28
2018-06-19T10:24:18.829Z,1018.31
2018-06-19T10:25:18.884Z,1018.35
2018-06-19T10:26:18.858Z,1018.30
2018-06-19T10:27:18.870Z,1018.33
2018-06-19T10:28:18.901Z,1018.35
2018-06-19T10:29:18.906Z,1018.32
2018-06-19T10:30:18.923Z,1018.34
2018-06-19T10:31:18.944Z,1018.39
2018-06-19T10:32:18.959Z,1018.36
2018-06-19T10:33:18.983Z,1018.35
2018-06-19T10:34:18.994Z,1018.37
2018-06-19T10:35:19.013Z,1018.35
2018-06-19T10:36:19.037Z,1018.39
2018-06-19T10:37:19.053Z,1018.42
2018-06-19T10:38:19.070Z,1018.41
2018-06-19T10:39:19.085Z,1018.42
2018-06-19T10:40:19.159Z,1018.44
2018-06-19T10:41:19.122Z,1018.42
2018-06-19T10:42:19.137Z,1018.39
2018-06-19T10:43:19.154Z,1018.43
2018-06-19T10:44:19.181Z,1018.42
2018-06-19T10:45:19.191Z,1018.47
2018-06-19T10:46:19.213Z,1018.44
2018-06-19T10:47:19.239Z,1018.45
2018-06-19T10:48:19.244Z,1018.48
2018-06-19T10:49:19.264Z,1018.49
2018-06-19T10:50:19.284Z,1018.49
2018-06-19T10:51:19.299Z,1018.50
2018-06-19T10:52:19.321Z,1018.55
2018-06-19T10:53:19.348Z,1018.48
2018-06-19T10:54:19.357Z,1018.46
2018-06-19T10:55:19.578Z,1018.46
2018-06-19T10:56:19.445Z,1018.46
2018-06-19T10:57:19.440Z,1018.47
2018-06-19T10:58:19.489Z,1018.49
2018-06-19T10:59:19.448Z,1018.44
2018-06-19T11:00:19.471Z,1018.46
2018-06-19T11:01:19.486Z,1018.46
2018-06-19T11:02:19.504Z,1018.44
2018-06-19T11:03:19.524Z,1018.41
2018-06-19T11:04:19.542Z,1018.45
2018-06-19T11:05:19.585Z,1018.46
2018-06-19T11:06:19.595Z,1018.44
2018-06-19T11:07:19.736Z,1018.48
2018-06-19T11:08:19.669Z,1018.46
2018-06-19T11:09:19.634Z,1018.48
2018-06-19T11:10:19.663Z,1018.47
2018-06-19T11:11:19.673Z,1018.45
2018-06-19T11:12:19.775Z,1018.40
2018-06-19T11:13:19.709Z,1018.42
2018-06-19T11:14:19.735Z,1018.44
2018-06-19T11:15:19.746Z,1018.46
2018-06-19T11:16:19.768Z,1018.50
2018-06-19T11:17:19.814Z,1018.48
2018-06-19T11:18:19.803Z,1018.50
2018-06-19T11:19:19.828Z,1018.52
2018-06-19T11:20:19.941Z,1018.51
2018-06-19T11:21:19.877Z,1018.52
2018-06-19T11:22:19.879Z,1018.55
2018-06-19T11:23:19.907Z,1018.52
2018-06-19T11:24:19.917Z,1018.49
2018-06-19T11:25:19.936Z,1018.55
2018-06-19T11:26:20.255Z,1018.55
2018-06-19T11:27:19.975Z,1018.54
2018-06-19T11:28:19.992Z,1018.53
2018-06-19T11:29:20.029Z,1018.46
2018-06-19T11:30:20.037Z,1018.50
2018-06-19T11:31:20.090Z,1018.50
2018-06-19T11:32:20.079Z,1018.49
2018-06-19T11:33:20.090Z,1018.49
2018-06-19T11:34:20.117Z,1018.48
2018-06-19T11:35:20.129Z,1018.54
2018-06-19T11:36:20.152Z,1018.52
2018-06-19T11:37:20.168Z,1018.53
2018-06-19T11:38:20.182Z,1018.56
2018-06-19T11:39:20.281Z,1018.58
2018-06-19T11:40:20.240Z,1018.59
2018-06-19T11:41:20.240Z,1018.54
2018-06-19T11:42:20.262Z,1018.57
2018-06-19T11:43:20.294Z,1018.55
2018-06-19T11:44:20.340Z,1018.55
2018-06-19T11:45:20.324Z,1018.53
2018-06-19T11:46:20.341Z,1018.53
2018-06-19T11:47:20.363Z,1018.55
2018-06-19T11:48:20.388Z,1018.51
2018-06-19T11:49:21.890Z,1018.50
2018-06-19T11:50:20.441Z,1018.53
2018-06-19T11:51:20.471Z,1018.57
2018-06-19T11:52:20.457Z,1018.56
2018-06-19T11:53:20.477Z,1018.63
2018-06-19T11:54:20.498Z,1018.63
2018-06-19T11:55:20.522Z,1018.66
2018-06-19T11:56:20.534Z,1018.65
2018-06-19T11:57:20.555Z,1018.62
2018-06-19T11:58:21.024Z,1018.56
2018-06-19T11:59:20.862Z,1018.56
2018-06-19T12:00:20.610Z,1018.53
2018-06-19T12:01:20.715Z,1018.54
2018-06-19T12:04:21.639Z,1018.46
2018-06-19T12:05:21.528Z,1018.54
2018-06-19T12:06:21.822Z,1018.57
2018-06-19T12:07:21.329Z,1018.55
2018-06-19T12:08:21.167Z,1018.52
2018-06-19T12:09:21.279Z,1018.51
2018-06-19T12:10:20.822Z,1018.50
2018-06-19T12:11:20.825Z,1018.51
2018-06-19T12:12:21.910Z,1018.52
2018-06-19T12:13:20.860Z,1018.48
2018-06-19T12:14:21.132Z,1018.54
2018-06-19T12:15:21.384Z,1018.53
2018-06-19T12:17:20.954Z,1018.52
2018-06-19T12:18:20.973Z,1018.55
2018-06-19T12:19:20.991Z,1018.56
2018-06-19T12:20:21.001Z,1018.56
2018-06-19T12:21:21.019Z,1018.58
2018-06-19T12:22:21.038Z,1018.61
2018-06-19T12:23:21.087Z,1018.62
2018-06-19T12:24:21.085Z,1018.59
2018-06-19T12:25:21.097Z,1018.59